createdAt,value
2017-10-26T00:00:07.975Z,19.60
2017-10-26T00:02:37.077Z,20.33
2017-10-26T00:05:06.364Z,26.80
2017-10-26T00:07:35.472Z,24.00
2017-10-26T00:10:04.578Z,18.03
2017-10-26T00:12:33.814Z,20.87
2017-10-26T00:15:02.880Z,19.43
2017-10-26T00:17:32.124Z,18.67
2017-10-26T00:20:01.926Z,18.63
2017-10-26T00:22:31.192Z,15.17
2017-10-26T00:25:00.295Z,14.30
2017-10-26T00:27:35.712Z,22.97
2017-10-26T00:30:04.948Z,19.60
2017-10-26T00:32:44.287Z,18.80
2017-10-26T00:35:13.542Z,13.50
2017-10-26T00:37:42.787Z,17.00
2017-10-26T00:40:13.458Z,16.93
2017-10-26T00:42:42.577Z,20.20
2017-10-26T00:45:11.837Z,21.03
2017-10-26T00:47:41.032Z,22.80
2017-10-26T00:50:10.116Z,22.07
2017-10-26T00:52:39.238Z,18.20
2017-10-26T00:55:16.419Z,15.93
2017-10-26T00:57:45.557Z,23.20
2017-10-26T01:00:17.780Z,19.20
2017-10-26T01:02:46.894Z,18.93
2017-10-26T01:05:15.967Z,16.53
2017-10-26T01:07:45.096Z,17.10
2017-10-26T01:10:14.225Z,21.60
2017-10-26T01:12:43.332Z,15.70
2017-10-26T01:15:12.410Z,18.60
2017-10-26T01:17:42.226Z,22.97
2017-10-26T01:20:11.375Z,19.20
2017-10-26T01:22:44.467Z,21.00
2017-10-26T01:25:13.573Z,22.90
2017-10-26T01:27:42.667Z,16.47
2017-10-26T01:30:11.943Z,22.03
2017-10-26T01:32:41.105Z,16.57
2017-10-26T01:35:10.207Z,17.83
2017-10-26T01:37:39.311Z,22.00
2017-10-26T01:40:08.431Z,21.93
2017-10-26T01:42:37.735Z,19.03
2017-10-26T01:45:06.868Z,14.70
2017-10-26T01:47:36.212Z,18.03
2017-10-26T01:50:05.496Z,18.30
2017-10-26T01:52:35.230Z,20.23
2017-10-26T01:55:05.468Z,16.60
2017-10-26T01:57:42.305Z,17.97
2017-10-26T02:00:11.528Z,14.47
2017-10-26T02:02:40.923Z,21.93
2017-10-26T02:05:10.359Z,18.87
2017-10-26T02:07:39.608Z,30.87
2017-10-26T02:10:08.814Z,19.13
2017-10-26T02:12:45.316Z,20.63
2017-10-26T02:15:14.500Z,19.00
2017-10-26T02:17:43.645Z,18.73
2017-10-26T02:20:20.079Z,18.30
2017-10-26T02:22:49.498Z,21.07
2017-10-26T02:25:18.724Z,21.63
2017-10-26T02:27:54.007Z,21.87
2017-10-26T02:30:28.894Z,22.83
2017-10-26T02:32:58.698Z,23.67
2017-10-26T02:35:27.919Z,22.17
2017-10-26T02:37:57.322Z,22.77
2017-10-26T02:40:26.465Z,22.27
2017-10-26T02:42:55.979Z,20.70
2017-10-26T02:45:32.868Z,23.53
2017-10-26T02:48:02.121Z,15.37
2017-10-26T02:50:31.204Z,23.37
2017-10-26T02:53:00.312Z,23.70
2017-10-26T02:55:29.419Z,24.93
2017-10-26T02:58:05.479Z,24.10
2017-10-26T03:00:34.599Z,18.17
2017-10-26T03:03:03.764Z,22.17
2017-10-26T03:05:33.838Z,21.60
2017-10-26T03:08:08.996Z,16.80
2017-10-26T03:10:38.230Z,27.17
2017-10-26T03:13:19.774Z,19.73
2017-10-26T03:15:48.899Z,22.40
2017-10-26T03:18:18.007Z,19.83
2017-10-26T03:20:47.255Z,23.40
2017-10-26T03:23:16.347Z,27.40
2017-10-26T03:25:45.448Z,28.37
2017-10-26T03:28:14.698Z,26.27
2017-10-26T03:30:44.334Z,27.10
2017-10-26T03:33:13.932Z,23.90
2017-10-26T03:35:43.034Z,19.63
2017-10-26T03:38:12.152Z,27.33
2017-10-26T03:40:41.391Z,28.90
2017-10-26T03:43:10.499Z,27.63
2017-10-26T03:45:39.587Z,24.87
2017-10-26T03:48:14.647Z,23.67
2017-10-26T03:50:45.095Z,27.10
2017-10-26T03:53:14.456Z,20.20
2017-10-26T03:55:43.555Z,29.83
2017-10-26T03:58:12.646Z,34.30
2017-10-26T04:00:41.760Z,28.33
2017-10-26T04:03:10.886Z,37.67
2017-10-26T04:05:39.975Z,26.17
2017-10-26T04:08:09.207Z,24.17
2017-10-26T04:10:39.834Z,25.47
2017-10-26T04:13:09.058Z,28.70
2017-10-26T04:15:38.177Z,38.43
2017-10-26T04:18:09.169Z,38.10
2017-10-26T04:20:44.648Z,30.53
2017-10-26T04:23:20.574Z,32.73
2017-10-26T04:25:49.835Z,27.20
2017-10-26T04:28:18.995Z,37.53
2017-10-26T04:30:48.211Z,33.47
2017-10-26T04:33:27.508Z,33.90
2017-10-26T04:35:56.651Z,51.60
2017-10-26T04:38:25.916Z,32.10
2017-10-26T04:41:01.944Z,25.63
2017-10-26T04:43:45.304Z,59.30
2017-10-26T04:46:15.345Z,33.47
2017-10-26T04:48:51.120Z,31.67
2017-10-26T04:51:20.191Z,46.80
2017-10-26T04:53:49.452Z,41.73
2017-10-26T04:56:18.815Z,80.20
2017-10-26T04:58:47.911Z,53.03
2017-10-26T05:01:17.651Z,47.67
2017-10-26T05:03:46.719Z,63.70
2017-10-26T05:06:15.819Z,50.87
2017-10-26T05:08:44.916Z,45.90
2017-10-26T05:11:13.980Z,40.80
2017-10-26T05:13:43.080Z,57.73
2017-10-26T05:16:12.160Z,58.80
2017-10-26T05:18:41.236Z,46.03
2017-10-26T05:21:10.335Z,60.67
2017-10-26T05:23:46.828Z,58.30
2017-10-26T05:26:21.935Z,70.50
2017-10-26T05:28:51.137Z,85.07
2017-10-26T05:31:20.441Z,68.90
2017-10-26T05:33:57.260Z,52.97
2017-10-26T05:36:26.352Z,65.00
2017-10-26T05:38:55.460Z,49.33
2017-10-26T05:41:37.819Z,49.07
2017-10-26T05:44:06.951Z,35.53
2017-10-26T05:46:36.085Z,54.13
2017-10-26T05:49:05.183Z,54.57
2017-10-26T05:51:34.602Z,41.17
2017-10-26T05:54:11.011Z,60.43
2017-10-26T05:56:40.124Z,47.00
2017-10-26T05:59:09.208Z,40.20
2017-10-26T06:01:40.123Z,30.87
2017-10-26T06:04:09.364Z,29.10
2017-10-26T06:06:38.467Z,28.50
2017-10-26T06:09:07.538Z,31.47
2017-10-26T06:11:36.617Z,28.80
2017-10-26T06:14:05.712Z,37.87
2017-10-26T06:16:34.790Z,38.33
2017-10-26T06:19:17.948Z,45.50
2017-10-26T06:21:47.179Z,40.07
2017-10-26T06:24:16.268Z,37.30
2017-10-26T06:26:45.375Z,24.03
2017-10-26T06:29:14.489Z,64.13
2017-10-26T06:31:43.787Z,30.47
2017-10-26T06:34:12.994Z,26.53
2017-10-26T06:36:42.075Z,26.83
2017-10-26T06:39:19.701Z,37.00
2017-10-26T06:41:48.819Z,24.27
2017-10-26T06:44:17.908Z,33.80
2017-10-26T06:46:47.140Z,24.93
2017-10-26T06:49:16.402Z,29.50
2017-10-26T06:51:45.490Z,37.37
2017-10-26T06:54:14.555Z,38.17
2017-10-26T06:56:43.828Z,41.23
2017-10-26T06:59:13.044Z,28.03
2017-10-26T07:01:43.464Z,25.83
2017-10-26T07:04:12.572Z,29.70
2017-10-26T07:06:41.668Z,36.83
2017-10-26T07:09:15.187Z,19.30
2017-10-26T07:11:45.640Z,26.03
2017-10-26T07:14:14.760Z,29.33
2017-10-26T07:16:43.843Z,27.03
2017-10-26T07:19:12.920Z,26.80
2017-10-26T07:21:42.082Z,21.87
2017-10-26T07:24:11.936Z,23.73
2017-10-26T07:26:41.009Z,19.17
2017-10-26T07:29:10.117Z,15.40
2017-10-26T07:31:49.452Z,25.93
2017-10-26T07:34:18.481Z,20.50
2017-10-26T07:36:47.591Z,22.60
2017-10-26T07:39:16.637Z,18.20
2017-10-26T07:41:45.887Z,23.07
2017-10-26T07:44:15.043Z,27.77
2017-10-26T07:46:44.350Z,23.53
2017-10-26T07:49:15.129Z,17.20
2017-10-26T07:51:44.316Z,22.83
2017-10-26T07:54:13.420Z,19.53
2017-10-26T07:56:48.891Z,26.23
2017-10-26T07:59:17.965Z,46.40
2017-10-26T08:01:47.163Z,42.67
2017-10-26T08:04:16.457Z,32.27
2017-10-26T08:06:45.558Z,19.03
2017-10-26T08:09:14.650Z,33.90
2017-10-26T08:11:43.867Z,33.83
2017-10-26T08:14:21.891Z,27.40
2017-10-26T08:16:51.080Z,36.60
2017-10-26T08:19:20.200Z,19.20
2017-10-26T08:21:49.348Z,18.73
2017-10-26T08:24:24.787Z,22.77
2017-10-26T08:26:54.403Z,24.40
2017-10-26T08:29:24.407Z,19.97
2017-10-26T08:31:54.607Z,13.67
2017-10-26T08:34:29.873Z,21.17
2017-10-26T08:36:58.955Z,15.60
2017-10-26T08:39:28.837Z,13.97
2017-10-26T08:41:57.974Z,22.37
2017-10-26T08:44:27.068Z,40.60
2017-10-26T08:46:56.375Z,28.00
2017-10-26T08:49:26.039Z,21.10
2017-10-26T08:51:56.169Z,19.93
2017-10-26T08:54:31.667Z,28.53
2017-10-26T08:57:00.980Z,12.90
2017-10-26T08:59:30.064Z,18.50
2017-10-26T09:01:59.203Z,18.30
2017-10-26T09:04:28.336Z,22.13
2017-10-26T09:06:57.495Z,14.07
2017-10-26T09:09:26.785Z,22.70
2017-10-26T09:11:55.873Z,17.57
2017-10-26T09:14:27.849Z,18.17
2017-10-26T09:17:10.698Z,17.67
2017-10-26T09:19:39.931Z,28.37
2017-10-26T09:22:09.073Z,15.30
2017-10-26T09:24:38.549Z,15.17
2017-10-26T09:27:07.827Z,28.67
2017-10-26T09:29:38.196Z,19.60
2017-10-26T09:32:07.360Z,13.60
2017-10-26T09:34:36.454Z,13.67
2017-10-26T09:37:05.786Z,15.90
2017-10-26T09:39:35.409Z,16.20
2017-10-26T09:42:04.708Z,12.77
2017-10-26T09:44:33.827Z,8.53
2017-10-26T09:47:03.119Z,7.97
2017-10-26T09:49:32.299Z,17.00
2017-10-26T09:52:07.419Z,19.40
2017-10-26T09:54:36.688Z,13.17
2017-10-26T09:57:05.808Z,25.30
2017-10-26T09:59:35.330Z,20.40
2017-10-26T10:02:04.725Z,16.83
2017-10-26T10:04:33.969Z,17.47
2017-10-26T10:07:03.547Z,25.13
2017-10-26T10:09:32.700Z,14.00
2017-10-26T10:12:02.154Z,18.63
2017-10-26T10:14:31.412Z,13.17
2017-10-26T10:17:00.551Z,11.50
2017-10-26T10:19:29.696Z,19.00
2017-10-26T10:21:58.830Z,8.30
2017-10-26T10:24:27.992Z,13.43
2017-10-26T10:26:57.102Z,11.47
2017-10-26T10:29:26.207Z,8.87
2017-10-26T10:31:56.288Z,10.70
2017-10-26T10:34:25.419Z,16.93
2017-10-26T10:36:55.992Z,14.87
2017-10-26T10:39:25.129Z,20.50
2017-10-26T10:41:54.247Z,11.17
2017-10-26T10:44:23.380Z,8.87
2017-10-26T10:47:07.295Z,8.30
2017-10-26T10:49:36.528Z,16.63
2017-10-26T10:52:05.672Z,7.07
2017-10-26T10:54:34.773Z,7.27
2017-10-26T10:57:04.289Z,12.07
2017-10-26T10:59:39.025Z,10.63
2017-10-26T11:02:08.373Z,4.40
2017-10-26T11:04:37.524Z,6.57
2017-10-26T11:07:06.630Z,7.33
2017-10-26T11:09:35.715Z,13.03
2017-10-26T11:12:18.125Z,17.90
2017-10-26T11:14:48.215Z,11.67
2017-10-26T11:17:17.336Z,6.40
2017-10-26T11:19:53.243Z,8.20
2017-10-26T11:22:22.377Z,15.80
2017-10-26T11:24:52.876Z,10.47
2017-10-26T11:27:22.212Z,9.27
2017-10-26T11:29:51.499Z,13.90
2017-10-26T11:32:20.592Z,10.17
2017-10-26T11:34:49.723Z,7.37
2017-10-26T11:37:19.714Z,6.73
2017-10-26T11:39:48.883Z,10.33
2017-10-26T11:42:18.005Z,11.10
2017-10-26T11:44:47.424Z,6.63
2017-10-26T11:47:16.544Z,4.87
2017-10-26T11:49:45.788Z,15.80
2017-10-26T11:52:15.032Z,14.17
2017-10-26T11:54:44.151Z,6.90
2017-10-26T11:57:13.305Z,11.97
2017-10-26T11:59:55.405Z,6.20
2017-10-26T12:02:24.724Z,9.80
2017-10-26T12:04:53.874Z,4.90
2017-10-26T12:07:23.947Z,14.30
2017-10-26T12:09:54.524Z,12.87
2017-10-26T12:12:23.662Z,8.30
2017-10-26T12:14:52.737Z,13.43
2017-10-26T12:17:22.430Z,9.80
2017-10-26T12:19:52.218Z,8.10
2017-10-26T12:22:21.487Z,5.17
2017-10-26T12:24:52.276Z,12.03
2017-10-26T12:27:21.374Z,5.97
2017-10-26T12:29:50.489Z,7.83
2017-10-26T12:32:19.825Z,8.53
2017-10-26T12:34:49.029Z,8.23
2017-10-26T12:37:18.605Z,7.57
2017-10-26T12:39:47.745Z,4.90
2017-10-26T12:42:17.027Z,10.50
2017-10-26T12:44:46.608Z,8.70
2017-10-26T12:47:16.075Z,8.97
2017-10-26T12:49:45.192Z,13.77
2017-10-26T12:52:21.756Z,10.00
2017-10-26T12:54:50.856Z,9.83
2017-10-26T12:57:20.076Z,7.83
2017-10-26T12:59:49.179Z,14.13
2017-10-26T13:02:18.777Z,7.77
2017-10-26T13:04:47.924Z,11.77
2017-10-26T13:07:17.127Z,11.90
2017-10-26T13:09:46.242Z,9.70
2017-10-26T13:12:15.680Z,12.70
2017-10-26T13:14:46.512Z,9.93
2017-10-26T13:17:16.999Z,13.43
2017-10-26T13:19:46.490Z,7.60
2017-10-26T13:22:15.601Z,11.20
2017-10-26T13:24:44.731Z,14.83
2017-10-26T13:27:14.935Z,11.87
2017-10-26T13:29:44.028Z,10.27
2017-10-26T13:32:13.140Z,11.00
2017-10-26T13:34:44.131Z,12.03
2017-10-26T13:37:19.368Z,8.90
2017-10-26T13:39:48.600Z,14.17
2017-10-26T13:42:17.821Z,16.63
2017-10-26T13:44:47.991Z,10.50
2017-10-26T13:47:17.325Z,23.17
2017-10-26T13:49:46.671Z,10.07
2017-10-26T13:52:16.013Z,11.50
2017-10-26T13:54:45.120Z,15.33
2017-10-26T13:57:14.965Z,12.73
2017-10-26T13:59:45.041Z,9.63
2017-10-26T14:02:14.439Z,12.97
2017-10-26T14:04:43.761Z,12.87
2017-10-26T14:07:12.846Z,9.93
2017-10-26T14:09:41.910Z,7.80
2017-10-26T14:12:11.011Z,11.60
2017-10-26T14:14:40.265Z,28.97
2017-10-26T14:17:09.328Z,13.87
2017-10-26T14:19:38.388Z,15.20
2017-10-26T14:22:08.341Z,12.87
2017-10-26T14:24:37.431Z,13.20
2017-10-26T14:27:15.501Z,12.10
2017-10-26T14:29:44.718Z,16.50
2017-10-26T14:32:13.934Z,9.80
2017-10-26T14:34:43.139Z,10.50
2017-10-26T14:37:12.540Z,13.27
2017-10-26T14:39:42.096Z,17.93
2017-10-26T14:42:11.285Z,9.90
2017-10-26T14:44:40.432Z,12.83
2017-10-26T14:47:10.159Z,24.27
2017-10-26T14:49:39.407Z,7.57
2017-10-26T14:52:08.789Z,9.33
2017-10-26T14:54:37.847Z,19.33
2017-10-26T14:57:07.909Z,11.17
2017-10-26T14:59:37.011Z,10.17
2017-10-26T15:02:06.312Z,14.70
2017-10-26T15:04:35.353Z,17.00
2017-10-26T15:07:05.020Z,14.97
2017-10-26T15:09:34.272Z,12.80
2017-10-26T15:12:03.672Z,13.20
2017-10-26T15:14:33.082Z,13.50
2017-10-26T15:17:02.157Z,9.87
2017-10-26T15:19:31.246Z,20.90
2017-10-26T15:22:00.292Z,13.07
2017-10-26T15:24:29.386Z,15.07
2017-10-26T15:26:58.483Z,13.80
2017-10-26T15:29:27.680Z,11.87
2017-10-26T15:31:56.873Z,20.30
2017-10-26T15:34:25.949Z,13.23
2017-10-26T15:36:55.089Z,9.63
2017-10-26T15:39:24.188Z,13.93
2017-10-26T15:41:53.288Z,9.10
2017-10-26T15:44:22.342Z,10.80
2017-10-26T15:46:51.540Z,8.40
2017-10-26T15:49:27.712Z,13.40
2017-10-26T15:51:56.829Z,12.53
2017-10-26T15:54:26.277Z,17.43
2017-10-26T15:56:55.565Z,10.10
2017-10-26T15:59:24.612Z,11.67
2017-10-26T16:01:53.717Z,13.60
2017-10-26T16:04:22.953Z,11.27
2017-10-26T16:06:52.177Z,12.23
2017-10-26T16:09:33.440Z,11.53
2017-10-26T16:12:02.771Z,14.03
2017-10-26T16:14:32.023Z,13.47
2017-10-26T16:17:01.483Z,9.77
2017-10-26T16:19:30.657Z,10.47
2017-10-26T16:22:00.108Z,10.23
2017-10-26T16:24:29.195Z,10.10
2017-10-26T16:26:58.598Z,17.80
2017-10-26T16:29:27.795Z,14.53
2017-10-26T16:31:56.868Z,24.63
2017-10-26T16:34:25.963Z,13.90
2017-10-26T16:36:55.037Z,17.27
2017-10-26T16:39:24.100Z,11.53
2017-10-26T16:41:53.277Z,25.60
2017-10-26T16:44:22.376Z,11.47
2017-10-26T16:46:52.481Z,11.30
2017-10-26T16:49:21.962Z,19.30
2017-10-26T16:51:58.645Z,21.80
2017-10-26T16:54:27.949Z,18.07
2017-10-26T16:56:57.034Z,19.40
2017-10-26T16:59:26.321Z,15.57
2017-10-26T17:01:55.407Z,12.20
2017-10-26T17:04:24.479Z,17.33
2017-10-26T17:06:53.585Z,17.87
2017-10-26T17:09:37.997Z,17.90
2017-10-26T17:12:07.182Z,13.73
2017-10-26T17:14:39.441Z,11.57
2017-10-26T17:17:21.427Z,11.90
2017-10-26T17:19:50.534Z,17.33
2017-10-26T17:22:32.543Z,19.20
2017-10-26T17:25:01.963Z,24.63
2017-10-26T17:27:38.918Z,19.63
2017-10-26T17:30:08.078Z,18.93
2017-10-26T17:32:38.898Z,20.70
2017-10-26T17:35:07.968Z,20.73
2017-10-26T17:37:43.099Z,16.23
2017-10-26T17:40:12.196Z,27.00
2017-10-26T17:42:41.474Z,14.83
2017-10-26T17:45:10.626Z,18.90
2017-10-26T17:47:53.080Z,24.37
2017-10-26T17:50:22.153Z,17.80
2017-10-26T17:52:52.048Z,20.23
2017-10-26T17:55:21.108Z,17.13
2017-10-26T17:57:50.197Z,23.87
2017-10-26T18:00:19.261Z,24.73
2017-10-26T18:02:48.730Z,26.03
2017-10-26T18:05:18.139Z,21.83
2017-10-26T18:07:47.215Z,23.37
2017-10-26T18:10:16.338Z,19.97
2017-10-26T18:12:57.101Z,18.53
2017-10-26T18:15:29.648Z,19.97
2017-10-26T18:17:58.849Z,19.87
2017-10-26T18:20:27.962Z,22.23
2017-10-26T18:22:57.080Z,16.13
2017-10-26T18:25:26.156Z,25.67
2017-10-26T18:27:55.266Z,20.17
2017-10-26T18:30:24.520Z,17.30
2017-10-26T18:32:53.750Z,19.40
2017-10-26T18:35:22.998Z,21.67
2017-10-26T18:37:52.197Z,20.57
2017-10-26T18:40:21.305Z,19.27
2017-10-26T18:42:50.417Z,23.03
2017-10-26T18:45:20.524Z,20.63
2017-10-26T18:47:49.633Z,15.07
2017-10-26T18:50:18.681Z,20.83
2017-10-26T18:52:47.883Z,21.40
2017-10-26T18:55:17.003Z,21.17
2017-10-26T18:57:47.946Z,18.43
2017-10-26T19:00:17.090Z,24.13
2017-10-26T19:02:49.786Z,19.77
2017-10-26T19:05:31.649Z,21.57
2017-10-26T19:08:00.782Z,21.23
2017-10-26T19:10:30.111Z,26.57
2017-10-26T19:12:59.326Z,19.17
2017-10-26T19:15:28.760Z,20.70
2017-10-26T19:18:04.165Z,16.00
2017-10-26T19:20:33.408Z,21.33
2017-10-26T19:23:02.600Z,27.33
2017-10-26T19:25:31.964Z,25.77
2017-10-26T19:28:01.194Z,29.03
2017-10-26T19:30:30.358Z,17.80
2017-10-26T19:32:59.458Z,23.30
2017-10-26T19:35:28.523Z,21.10
2017-10-26T19:37:57.627Z,18.77
2017-10-26T19:40:26.692Z,21.10
2017-10-26T19:42:55.808Z,24.17
2017-10-26T19:45:25.352Z,23.97
2017-10-26T19:47:54.438Z,19.17
2017-10-26T19:50:23.498Z,28.03
2017-10-26T19:52:52.594Z,20.67
2017-10-26T19:55:21.728Z,23.33
2017-10-26T19:57:51.155Z,18.07
2017-10-26T20:00:20.232Z,22.10
2017-10-26T20:02:49.329Z,23.47
2017-10-26T20:05:18.532Z,22.93
2017-10-26T20:07:47.745Z,20.07
2017-10-26T20:10:16.801Z,23.57
2017-10-26T20:12:46.085Z,27.07
2017-10-26T20:15:15.181Z,23.20
2017-10-26T20:17:51.221Z,20.50
2017-10-26T20:20:20.430Z,22.70
2017-10-26T20:22:49.545Z,20.63
2017-10-26T20:25:18.995Z,23.23
2017-10-26T20:27:51.044Z,24.70
2017-10-26T20:30:29.615Z,28.53
2017-10-26T20:32:58.774Z,22.63
2017-10-26T20:35:28.425Z,23.70
2017-10-26T20:37:58.014Z,23.23
2017-10-26T20:40:27.226Z,17.13
2017-10-26T20:42:56.679Z,16.53
2017-10-26T20:45:26.002Z,19.77
2017-10-26T20:48:09.815Z,31.07
2017-10-26T20:50:51.245Z,28.23
2017-10-26T20:53:25.976Z,21.87
2017-10-26T20:56:00.774Z,23.20
2017-10-26T20:58:35.537Z,21.67
2017-10-26T21:01:10.396Z,25.00
2017-10-26T21:03:45.240Z,20.83
2017-10-26T21:06:19.448Z,19.73
2017-10-26T21:08:54.392Z,25.17
2017-10-26T21:11:29.385Z,17.23
2017-10-26T21:14:05.519Z,24.90
2017-10-26T21:16:34.603Z,21.63
2017-10-26T21:19:03.660Z,16.43
2017-10-26T21:21:32.738Z,22.33
2017-10-26T21:24:04.306Z,24.47
2017-10-26T21:26:33.596Z,22.47
2017-10-26T21:29:10.756Z,21.07
2017-10-26T21:31:39.863Z,22.80
2017-10-26T21:34:09.118Z,17.60
2017-10-26T21:36:39.472Z,21.20
2017-10-26T21:39:10.376Z,20.20
2017-10-26T21:41:39.652Z,20.70
2017-10-26T21:44:08.807Z,22.80
2017-10-26T21:46:38.064Z,20.03
2017-10-26T21:49:13.312Z,18.07
2017-10-26T21:51:42.437Z,24.50
2017-10-26T21:54:11.547Z,22.50
2017-10-26T21:56:41.488Z,23.00
2017-10-26T21:59:11.673Z,25.13
2017-10-26T22:01:40.779Z,28.43
2017-10-26T22:04:10.026Z,25.13
2017-10-26T22:06:39.585Z,33.43
2017-10-26T22:09:09.742Z,23.77
2017-10-26T22:11:39.503Z,24.20
2017-10-26T22:14:08.737Z,22.80
2017-10-26T22:16:38.513Z,28.17
2017-10-26T22:19:07.669Z,29.50
2017-10-26T22:21:37.421Z,26.63
2017-10-26T22:24:06.908Z,28.30
2017-10-26T22:26:36.188Z,28.00
2017-10-26T22:29:05.396Z,34.73
2017-10-26T22:31:34.913Z,30.70
2017-10-26T22:34:04.164Z,34.57
2017-10-26T22:36:39.580Z,31.70
2017-10-26T22:39:09.091Z,34.47
2017-10-26T22:41:38.268Z,36.37
2017-10-26T22:44:15.441Z,36.43
2017-10-26T22:46:44.631Z,38.50
2017-10-26T22:49:14.031Z,39.40
2017-10-26T22:51:49.722Z,34.23
2017-10-26T22:54:19.067Z,30.70
2017-10-26T22:56:48.220Z,30.83
2017-10-26T22:59:17.560Z,29.43
2017-10-26T23:01:53.864Z,31.13
2017-10-26T23:04:23.097Z,32.30
2017-10-26T23:06:52.638Z,33.37
2017-10-26T23:09:26.617Z,32.47
2017-10-26T23:11:56.353Z,25.73
2017-10-26T23:14:25.645Z,28.67
2017-10-26T23:16:54.859Z,39.33
2017-10-26T23:19:23.988Z,33.63
2017-10-26T23:21:59.362Z,30.80
2017-10-26T23:24:43.861Z,27.27
2017-10-26T23:27:13.002Z,28.27
2017-10-26T23:29:42.230Z,32.87
2017-10-26T23:32:11.711Z,43.57
2017-10-26T23:34:52.968Z,28.93
2017-10-26T23:37:22.240Z,29.33
2017-10-26T23:39:51.612Z,26.87
2017-10-26T23:42:21.006Z,30.13
2017-10-26T23:44:50.324Z,32.03
2017-10-26T23:47:19.495Z,46.63
2017-10-26T23:49:48.660Z,50.57
2017-10-26T23:52:17.903Z,49.57
2017-10-26T23:54:47.281Z,57.70
2017-10-26T23:57:17.418Z,44.07
2017-10-26T23:59:53.102Z,123.67
